Time;durP1;ratioP1;P1;durP2;ratioP2;P2;SDS_P1;SDS_P2;PMS_P1;PMS_P2;Temp;Humidity;BMP_temperature;BMP_pressure;BME280_temperature;BME280_humidity;BME280_pressure;Samples;Min_cycle;Max_cycle;Signal;HPM_P1;HPM_P2
2022/09/23 00:01:47;;;;;;;4.33;3.07;;;;;;;8.34;74.88;95810.47;4949516;28;20196;-81
2022/09/23 00:04:12;;;;;;;4.03;2.87;;;;;;;8.38;74.40;95806.72;4969614;28;20220;-81
2022/09/23 00:06:38;;;;;;;3.60;2.90;;;;;;;8.33;74.57;95809.66;4964114;28;20225;-79
2022/09/23 00:09:03;;;;;;;3.63;3.10;;;;;;;8.36;74.21;95803.44;4959137;28;20197;-79
2022/09/23 00:11:29;;;;;;;2.97;2.60;;;;;;;8.39;73.64;95806.59;4974203;28;20184;-79
2022/09/23 00:13:57;;;;;;;4.20;2.73;;;;;;;8.44;73.58;95813.97;4968632;28;20271;-80
2022/09/23 00:16:27;;;;;;;5.50;2.50;;;;;;;8.38;73.11;95806.72;4983030;28;20718;-79
2022/09/23 00:18:52;;;;;;;3.87;2.60;;;;;;;8.42;72.99;95810.69;4969426;28;20678;-79
2022/09/23 00:21:19;;;;;;;4.60;2.70;;;;;;;8.47;72.45;95809.34;4943002;28;20216;-79
2022/09/23 00:23:45;;;;;;;3.10;2.80;;;;;;;8.48;72.60;95807.56;4958806;28;20195;-79
2022/09/23 00:26:14;;;;;;;3.57;2.23;;;;;;;8.47;72.36;95811.13;4964634;28;20217;-78
2022/09/23 00:28:40;;;;;;;4.47;2.20;;;;;;;8.50;72.28;95803.13;4984037;28;20208;-79
2022/09/23 00:31:11;;;;;;;3.30;2.70;;;;;;;8.42;72.02;95802.94;4967871;28;20193;-80
2022/09/23 00:33:37;;;;;;;2.80;2.60;;;;;;;8.47;71.74;95806.75;4954563;28;20236;-80
2022/09/23 00:36:05;;;;;;;4.30;2.43;;;;;;;8.56;71.25;95801.75;4965150;28;20304;-80
2022/09/23 00:38:30;;;;;;;2.70;2.30;;;;;;;8.60;70.89;95800.56;4950394;29;20737;-81
2022/09/23 00:40:57;;;;;;;2.77;2.50;;;;;;;8.54;70.92;95801.06;4958291;28;20185;-81
2022/09/23 00:43:43;;;;;;;3.70;2.40;;;;;;;8.49;71.19;95797.13;4948535;28;20200;-80
2022/09/23 00:46:12;;;;;;;2.30;2.10;;;;;;;8.49;71.01;95794.53;4981014;28;20219;-82
2022/09/23 00:48:40;;;;;;;2.57;2.10;;;;;;;8.52;70.96;95796.03;4954416;28;20248;-79
2022/09/23 00:51:07;;;;;;;3.10;2.33;;;;;;;8.47;71.38;95795.59;4944816;28;20622;-80
2022/09/23 00:53:33;;;;;;;3.43;2.60;;;;;;;8.47;71.36;95790.41;4962750;28;20241;-81
2022/09/23 00:56:01;;;;;;;4.00;2.23;;;;;;;8.49;71.14;95793.72;4941224;28;20239;-80
2022/09/23 00:58:31;;;;;;;4.73;3.00;;;;;;;8.49;70.72;95783.38;4941931;28;20192;-80
2022/09/23 01:00:58;;;;;;;3.13;2.53;;;;;;;8.43;70.79;95789.03;4967178;28;20203;-80
2022/09/23 01:03:24;;;;;;;5.27;2.23;;;;;;;8.44;70.88;95786.31;4970297;28;20271;-80
2022/09/23 01:05:50;;;;;;;3.30;2.50;;;;;;;8.43;70.46;95779.50;4967299;28;20311;-81
2022/09/23 01:08:15;;;;;;;2.53;2.33;;;;;;;8.43;70.75;95786.47;4955480;28;20196;-80
2022/09/23 01:10:52;;;;;;;2.50;2.30;;;;;;;8.48;70.35;95784.28;4971908;28;20275;-80
2022/09/23 01:13:41;;;;;;;2.67;2.23;;;;;;;8.46;70.89;95778.44;4968566;28;20188;-81
2022/09/23 01:16:21;;;;;;;2.70;2.50;;;;;;;8.42;71.02;95782.22;4966687;28;20232;-80
2022/09/23 01:19:00;;;;;;;3.03;2.73;;;;;;;8.38;71.33;95775.66;4956707;28;20254;-80
2022/09/23 01:21:31;;;;;;;3.73;2.63;;;;;;;8.34;71.49;95771.66;4968186;28;20244;-81
2022/09/23 01:24:28;;;;;;;2.60;2.40;;;;;;;8.39;71.24;95772.97;4972536;28;20231;-80
2022/09/23 01:27:00;;;;;;;4.07;2.37;;;;;;;8.34;71.14;95769.09;4970275;28;20240;-80
2022/09/23 01:30:03;;;;;;;3.10;2.40;;;;;;;8.24;71.79;95767.25;4948551;28;20247;-80
2022/09/23 01:32:34;;;;;;;2.60;2.40;;;;;;;8.20;72.25;95771.03;4967033;28;20694;-80
2022/09/23 01:35:25;;;;;;;2.50;2.30;;;;;;;8.09;72.69;95763.34;4971378;28;20185;-81
2022/09/23 01:38:13;;;;;;;3.23;2.40;;;;;;;8.11;72.60;95768.41;4966418;28;20200;-81
2022/09/23 01:40:45;;;;;;;2.43;2.23;;;;;;;8.08;72.75;95763.50;4952118;28;20685;-81
2022/09/23 01:43:22;;;;;;;2.47;2.23;;;;;;;8.10;72.73;95762.41;4969092;28;20646;-80
2022/09/23 01:45:52;;;;;;;5.27;2.50;;;;;;;8.08;72.88;95756.53;4955510;28;20683;-80
2022/09/23 01:48:25;;;;;;;2.47;2.27;;;;;;;8.02;73.22;95757.03;4964280;28;20216;-81
2022/09/23 01:50:57;;;;;;;2.50;2.30;;;;;;;7.99;73.24;95752.13;4970185;28;20246;-81
2022/09/23 01:53:40;;;;;;;3.13;2.30;;;;;;;8.03;73.12;95747.53;4940553;28;20566;-80
2022/09/23 01:56:17;;;;;;;3.27;2.67;;;;;;;8.00;73.08;95745.19;4939825;28;20204;-81
2022/09/23 01:59:08;;;;;;;2.47;2.27;;;;;;;8.03;72.88;95740.56;4947284;28;20192;-80
2022/09/23 02:01:49;;;;;;;3.03;2.73;;;;;;;7.99;73.00;95741.78;4972055;28;20604;-79
2022/09/23 02:04:24;;;;;;;3.00;2.27;;;;;;;7.99;72.97;95739.19;4972498;28;20204;-80
2022/09/23 02:06:54;;;;;;;4.03;2.43;;;;;;;7.94;73.70;95731.81;4955955;28;20718;-81
2022/09/23 02:09:23;;;;;;;3.70;2.47;;;;;;;7.97;73.15;95735.13;4968951;28;20201;-80
2022/09/23 02:11:51;;;;;;;2.47;2.27;;;;;;;8.03;72.95;95738.00;4964592;28;20197;-80
2022/09/23 02:14:23;;;;;;;3.57;2.70;;;;;;;7.93;72.90;95727.59;4947723;28;20188;-80
2022/09/23 02:16:50;;;;;;;3.10;2.30;;;;;;;7.88;73.58;95736.69;4979949;28;20732;-80
2022/09/23 02:19:33;;;;;;;2.60;2.40;;;;;;;7.82;73.88;95730.25;4952647;28;20190;-80
2022/09/23 02:22:05;;;;;;;5.57;2.40;;;;;;;7.83;73.60;95731.88;4971837;28;20188;-79
2022/09/23 02:24:35;;;;;;;2.50;2.27;;;;;;;7.78;73.88;95730.66;4939934;28;20263;-80
2022/09/23 02:27:17;;;;;;;2.73;2.50;;;;;;;7.81;73.65;95728.63;4955767;28;20212;-81
2022/09/23 02:30:11;;;;;;;3.30;2.50;;;;;;;7.75;74.08;95728.28;4965559;28;20227;-80
2022/09/23 02:33:00;;;;;;;2.20;2.10;;;;;;;7.79;74.03;95722.75;4963145;28;20374;-79
2022/09/23 02:35:32;;;;;;;2.40;2.20;;;;;;;7.79;73.99;95725.34;4951337;28;20279;-79
2022/09/23 02:38:20;;;;;;;2.77;2.20;;;;;;;7.72;74.05;95720.78;4984037;28;20211;-79
2022/09/23 02:40:52;;;;;;;3.17;2.50;;;;;;;7.74;74.14;95718.91;4952225;28;20185;-81
2022/09/23 02:43:35;;;;;;;4.90;2.60;;;;;;;7.74;73.98;95724.06;4967697;28;20208;-79
2022/09/23 02:46:04;;;;;;;5.70;2.47;;;;;;;7.70;74.15;95725.28;4982669;28;20747;-80
2022/09/23 02:48:33;;;;;;;3.77;2.57;;;;;;;7.74;73.87;95724.06;4955382;28;20203;-80
2022/09/23 02:51:01;;;;;;;3.93;2.23;;;;;;;7.74;73.73;95716.31;4947992;28;20712;-81
2022/09/23 02:53:26;;;;;;;2.40;2.20;;;;;;;7.73;73.62;95714.69;4955514;28;20204;-80
2022/09/23 02:55:51;;;;;;;2.50;2.13;;;;;;;7.70;73.66;95713.16;4964677;28;20212;-81
2022/09/23 02:58:17;;;;;;;3.20;2.33;;;;;;;7.71;73.79;95714.00;4937775;28;20196;-79
2022/09/23 03:00:56;;;;;;;2.70;2.30;;;;;;;7.69;73.83;95706.38;4947886;28;20196;-80
2022/09/23 03:03:39;;;;;;;3.30;2.30;;;;;;;7.72;73.74;95700.13;4962957;28;20294;-80
2022/09/23 03:06:30;;;;;;;3.40;2.30;;;;;;;7.78;73.39;95709.97;4953543;28;20224;-79
2022/09/23 03:09:05;;;;;;;2.33;2.13;;;;;;;7.82;73.17;95714.75;4969871;28;20188;-81
2022/09/23 03:11:34;;;;;;;2.30;2.10;;;;;;;7.81;73.25;95705.34;4952254;28;20228;-80
2022/09/23 03:14:16;;;;;;;4.23;2.17;;;;;;;7.81;73.05;95704.53;4965737;28;20188;-79
2022/09/23 03:16:51;;;;;;;2.23;2.03;;;;;;;7.74;73.53;95703.38;4962395;28;20247;-80
2022/09/23 03:19:32;;;;;;;3.00;2.20;;;;;;;7.77;73.32;95696.19;4962688;28;20189;-80
2022/09/23 03:22:02;;;;;;;3.50;2.13;;;;;;;7.75;73.39;95694.69;4959163;28;20196;-80
2022/09/23 03:24:30;;;;;;;2.37;2.10;;;;;;;7.68;73.52;95691.78;4964451;28;20211;-81
2022/09/23 03:26:59;;;;;;;2.30;2.10;;;;;;;7.67;73.91;95693.53;4974685;28;20196;-81
2022/09/23 03:29:24;;;;;;;2.90;2.50;;;;;;;7.62;73.83;95689.72;4957564;28;20189;-81
2022/09/23 03:31:49;;;;;;;2.80;2.27;;;;;;;7.60;74.02;95689.84;4962686;28;20199;-81
2022/09/23 03:34:22;;;;;;;2.60;2.40;;;;;;;7.58;74.13;95689.13;4966017;28;20192;-81
2022/09/23 03:37:00;;;;;;;3.63;2.60;;;;;;;7.59;74.33;95693.34;4953816;28;20220;-81
2022/09/23 03:39:43;;;;;;;2.37;2.17;;;;;;;7.55;74.34;95688.56;4954493;28;20203;-81
2022/09/23 03:42:15;;;;;;;5.37;2.60;;;;;;;7.49;74.71;95689.06;4941354;28;20201;-80
2022/09/23 03:44:45;;;;;;;3.67;2.20;;;;;;;7.45;74.63;95683.34;4954362;28;20287;-81
2022/09/23 03:47:13;;;;;;;3.73;2.87;;;;;;;7.42;74.86;95683.59;4966374;28;20213;-81
2022/09/23 03:49:40;;;;;;;3.60;2.43;;;;;;;7.36;74.97;95682.31;4965216;28;20192;-80
2022/09/23 03:52:05;;;;;;;4.03;2.60;;;;;;;7.33;75.57;95679.16;4955590;28;20192;-81
2022/09/23 03:54:31;;;;;;;3.50;3.20;;;;;;;7.32;75.75;95682.69;4970283;28;20238;-81
2022/09/23 03:56:58;;;;;;;2.50;2.30;;;;;;;7.33;75.91;95679.16;4965826;28;20233;-81
2022/09/23 03:59:24;;;;;;;3.83;2.90;;;;;;;7.26;76.04;95678.03;4949894;28;20189;-81
2022/09/23 04:01:50;;;;;;;2.73;2.53;;;;;;;7.21;76.24;95678.38;4961921;28;20280;-82
2022/09/23 04:04:16;;;;;;;2.77;2.50;;;;;;;7.16;76.35;95677.13;4971137;28;20332;-79
2022/09/23 04:06:41;;;;;;;2.37;2.17;;;;;;;7.12;76.66;95683.47;4953870;28;20329;-80
2022/09/23 04:09:07;;;;;;;5.87;2.83;;;;;;;7.13;76.52;95679.94;4949662;28;20204;-80
2022/09/23 04:11:32;;;;;;;2.90;2.30;;;;;;;7.14;76.66;95676.41;4944528;28;20189;-80
2022/09/23 04:13:57;;;;;;;3.47;2.43;;;;;;;7.19;76.46;95676.88;4964356;28;20189;-80
2022/09/23 04:16:23;;;;;;;3.37;3.07;;;;;;;7.17;76.37;95669.25;4970717;28;20215;-81
2022/09/23 04:18:48;;;;;;;2.53;2.33;;;;;;;7.29;75.57;95672.59;4948532;28;20219;-79
2022/09/23 04:21:14;;;;;;;4.13;2.60;;;;;;;7.25;75.57;95672.06;4971721;28;20239;-79
2022/09/23 04:23:40;;;;;;;3.00;2.00;;;;;;;7.37;74.96;95671.03;4958901;28;20185;-81
2022/09/23 04:26:05;;;;;;;2.87;2.37;;;;;;;7.42;74.78;95667.25;4963820;28;20583;-80
2022/09/23 04:28:31;;;;;;;2.63;2.33;;;;;;;7.45;74.18;95672.19;4966015;28;20189;-80
2022/09/23 04:30:56;;;;;;;3.83;2.60;;;;;;;7.46;74.39;95666.88;4985687;28;20247;-80
2022/09/23 04:33:23;;;;;;;2.33;2.13;;;;;;;7.42;74.54;95664.66;4956472;28;20189;-80
2022/09/23 04:35:51;;;;;;;2.43;2.20;;;;;;;7.39;74.28;95663.97;4973619;28;20623;-80
2022/09/23 04:38:17;;;;;;;2.80;2.27;;;;;;;7.34;74.77;95660.16;4949167;28;20199;-80
2022/09/23 04:40:43;;;;;;;3.97;2.17;;;;;;;7.32;74.67;95659.44;4966557;28;20677;-80
2022/09/23 04:43:08;;;;;;;2.77;2.30;;;;;;;7.31;74.59;95660.38;4974495;28;20276;-80
2022/09/23 04:45:34;;;;;;;2.50;2.13;;;;;;;7.30;74.97;95663.91;4967399;28;20213;-81
2022/09/23 04:47:59;;;;;;;3.20;2.27;;;;;;;7.37;74.56;95660.72;4952386;28;20189;-81
2022/09/23 04:50:25;;;;;;;1.90;1.80;;;;;;;7.36;74.62;95666.00;4974480;28;20189;-80
2022/09/23 04:52:51;;;;;;;2.17;2.00;;;;;;;7.41;74.30;95666.44;4942932;28;20188;-81
2022/09/23 04:55:17;;;;;;;2.70;2.03;;;;;;;7.45;73.93;95669.59;4958337;28;20188;-80
2022/09/23 04:57:43;;;;;;;2.50;2.07;;;;;;;7.47;74.05;95670.28;4951841;28;20193;-80
2022/09/23 05:00:11;;;;;;;3.07;1.80;;;;;;;7.48;73.79;95677.09;4952288;28;20188;-80
2022/09/23 05:02:41;;;;;;;2.70;2.20;;;;;;;7.50;74.04;95673.44;4948886;28;20252;-81
2022/09/23 05:05:07;;;;;;;4.53;2.17;;;;;;;7.55;73.71;95673.88;4972362;28;20566;-80
2022/09/23 05:07:32;;;;;;;2.40;2.20;;;;;;;7.57;73.36;95681.50;4973234;28;20209;-80
2022/09/23 05:09:57;;;;;;;2.80;2.43;;;;;;;7.59;73.32;95680.44;4966483;28;20572;-79
2022/09/23 05:12:23;;;;;;;5.00;4.27;;;;;;;7.61;73.08;95688.91;4952835;28;20204;-81
2022/09/23 05:14:48;;;;;;;5.47;4.33;;;;;;;7.62;72.94;95684.53;4965132;28;20188;-80
2022/09/23 05:17:14;;;;;;;5.43;3.07;;;;;;;7.70;72.68;95686.50;4967000;28;20689;-83
2022/09/23 05:19:39;;;;;;;4.10;2.60;;;;;;;7.73;72.45;95689.66;4969924;28;20187;-83
2022/09/23 05:22:05;;;;;;;2.60;2.40;;;;;;;7.77;72.43;95693.59;4974715;28;20196;-81
2022/09/23 05:24:30;;;;;;;2.77;2.57;;;;;;;7.77;72.62;95682.44;4969721;28;20205;-84
2022/09/23 05:26:55;;;;;;;2.00;1.90;;;;;;;7.93;72.09;95688.00;4951463;28;20212;-81
2022/09/23 05:29:20;;;;;;;4.47;2.27;;;;;;;7.90;72.01;95689.06;4966287;28;20537;-82
2022/09/23 05:31:46;;;;;;;2.40;2.20;;;;;;;7.98;72.05;95683.25;4964361;28;20266;-82
2022/09/23 05:34:11;;;;;;;2.90;2.70;;;;;;;8.01;71.92;95682.19;4951524;28;20311;-82
2022/09/23 05:36:36;;;;;;;2.17;1.93;;;;;;;8.14;70.82;95680.22;4944976;28;20858;-82
2022/09/23 05:39:03;;;;;;;2.30;2.10;;;;;;;8.22;70.59;95677.81;4936110;28;20205;-82
2022/09/23 05:41:28;;;;;;;2.47;2.00;;;;;;;8.41;70.44;95688.25;4947345;28;20204;-81
2022/09/23 05:43:54;;;;;;;3.05;2.25;;;;;;;8.44;70.58;95690.56;4952991;28;20193;-83
2022/09/23 05:46:22;;;;;;;2.00;1.80;;;;;;;8.49;70.22;95687.59;4970785;28;20308;-82
2022/09/23 05:48:47;;;;;;;2.97;2.00;;;;;;;8.49;70.18;95680.66;4972051;28;20260;-81
2022/09/23 05:51:16;;;;;;;2.17;1.97;;;;;;;8.69;69.95;95684.09;4955199;28;20639;-81
2022/09/23 05:53:44;;;;;;;3.70;2.00;;;;;;;8.76;69.27;95685.22;4954847;28;20197;-81
2022/09/23 05:56:10;;;;;;;2.27;2.07;;;;;;;8.92;69.27;95689.03;4962924;28;20205;-82
2022/09/23 05:58:36;;;;;;;2.30;2.10;;;;;;;8.99;69.12;95685.78;4964268;28;20640;-83
2022/09/23 06:01:08;;;;;;;1.97;1.83;;;;;;;9.03;68.59;95686.34;4960770;28;20245;-81
2022/09/23 06:03:34;;;;;;;2.90;1.67;;;;;;;9.23;68.46;95692.38;4955373;28;20188;-82
2022/09/23 06:05:59;;;;;;;2.57;1.87;;;;;;;9.29;68.50;95697.84;4972436;28;20205;-81
2022/09/23 06:08:24;;;;;;;2.83;2.33;;;;;;;9.42;68.08;95686.38;4952432;28;20322;-81
2022/09/23 06:10:50;;;;;;;5.83;2.13;;;;;;;9.48;67.83;95689.22;4938293;28;20189;-82
2022/09/23 06:13:15;;;;;;;3.50;1.73;;;;;;;9.67;67.72;95692.78;4955228;28;20188;-83
2022/09/23 06:15:43;;;;;;;2.00;1.53;;;;;;;9.77;67.57;95688.38;4965282;28;20602;-81
2022/09/23 06:18:08;;;;;;;2.80;1.90;;;;;;;9.84;67.37;95695.47;4951721;28;20192;-83
2022/09/23 06:20:34;;;;;;;2.17;1.93;;;;;;;9.92;67.48;95687.81;4956595;28;20188;-81
2022/09/23 06:23:04;;;;;;;2.30;1.70;;;;;;;9.99;67.39;95685.47;4985910;28;20193;-81
2022/09/23 06:25:31;;;;;;;2.33;1.93;;;;;;;10.01;67.66;95685.34;4951677;28;20257;-83
2022/09/23 06:27:58;;;;;;;1.77;1.67;;;;;;;10.17;67.13;95685.56;4938090;28;20664;-83
2022/09/23 06:30:25;;;;;;;2.03;1.80;;;;;;;10.32;66.98;95680.75;4953584;28;20276;-84
2022/09/23 06:32:52;;;;;;;2.03;1.70;;;;;;;10.47;66.87;95681.91;4954900;28;20247;-81
2022/09/23 06:35:21;;;;;;;3.27;1.80;;;;;;;10.59;66.55;95675.56;4986307;28;20196;-81
2022/09/23 06:37:46;;;;;;;2.23;2.03;;;;;;;10.66;66.66;95676.63;4957050;28;20195;-82
2022/09/23 06:40:13;;;;;;;3.67;1.80;;;;;;;10.92;65.55;95675.94;4935232;28;20200;-82
2022/09/23 06:42:38;;;;;;;2.60;2.03;;;;;;;10.95;65.24;95676.44;4978104;28;20327;-83
2022/09/23 06:45:04;;;;;;;1.70;1.60;;;;;;;11.12;64.64;95674.84;4969607;28;20296;-81
2022/09/23 06:47:29;;;;;;;3.07;1.93;;;;;;;11.26;64.76;95676.94;4970057;28;20236;-81
2022/09/23 06:49:54;;;;;;;4.40;2.60;;;;;;;11.35;64.19;95667.44;4951458;28;20701;-83
2022/09/23 06:52:20;;;;;;;2.80;1.87;;;;;;;11.61;63.72;95681.28;4935280;28;20227;-81
2022/09/23 06:54:46;;;;;;;2.27;1.73;;;;;;;11.77;63.15;95677.19;4968314;28;20645;-81
2022/09/23 06:57:12;;;;;;;1.60;1.50;;;;;;;12.02;62.39;95678.22;4934683;28;20723;-82
2022/09/23 06:59:38;;;;;;;2.47;1.97;;;;;;;12.24;61.90;95687.28;4951094;28;20208;-78
2022/09/23 07:02:03;;;;;;;3.27;1.70;;;;;;;12.48;61.34;95687.41;4965306;28;20185;-83
2022/09/23 07:04:28;;;;;;;1.80;1.60;;;;;;;12.56;61.73;95687.44;4951902;28;20200;-82
2022/09/23 07:06:54;;;;;;;3.30;1.70;;;;;;;12.59;61.16;95688.91;4938755;28;20212;-81
2022/09/23 07:09:19;;;;;;;2.50;1.77;;;;;;;12.75;61.40;95691.59;4968871;28;20255;-83
2022/09/23 07:11:46;;;;;;;2.73;1.80;;;;;;;12.84;60.29;95693.25;4965844;28;20212;-81
2022/09/23 07:14:12;;;;;;;3.13;1.77;;;;;;;12.97;59.95;95691.00;4978487;28;20197;-82
2022/09/23 07:16:38;;;;;;;2.10;1.87;;;;;;;13.10;60.00;95694.97;4953340;28;20307;-83
2022/09/23 07:19:03;;;;;;;5.97;2.00;;;;;;;13.18;59.88;95687.97;4953668;28;20271;-84
2022/09/23 07:21:28;;;;;;;2.83;2.10;;;;;;;13.27;59.79;95688.84;4954381;28;20251;-82
2022/09/23 07:23:56;;;;;;;2.07;1.87;;;;;;;13.41;59.24;95687.38;4949297;28;20283;-82
2022/09/23 07:26:22;;;;;;;4.50;1.90;;;;;;;13.31;59.90;95696.16;4936193;28;20768;-82
2022/09/23 07:28:55;;;;;;;2.00;1.70;;;;;;;13.48;60.08;95702.22;4939293;28;20188;-83
2022/09/23 07:31:20;;;;;;;4.17;2.60;;;;;;;13.43;60.80;95696.69;4967888;28;20195;-82
2022/09/23 07:33:46;;;;;;;4.47;2.27;;;;;;;13.43;61.06;95698.47;4971706;28;20939;-83
2022/09/23 07:36:15;;;;;;;2.83;1.90;;;;;;;13.36;61.08;95707.94;4949437;28;20216;-83
2022/09/23 07:38:40;;;;;;;2.03;1.83;;;;;;;13.43;60.71;95704.53;4939039;28;20193;-82
2022/09/23 07:41:08;;;;;;;2.23;1.93;;;;;;;13.51;60.35;95707.09;4971214;28;20197;-82
2022/09/23 07:43:34;;;;;;;2.63;1.80;;;;;;;13.58;60.33;95702.06;4951927;28;20602;-85
2022/09/23 07:46:01;;;;;;;2.80;2.60;;;;;;;13.67;60.37;95706.31;4940073;28;20223;-86
2022/09/23 07:48:28;;;;;;;2.50;2.30;;;;;;;13.52;60.05;95700.13;4955086;28;20188;-83
2022/09/23 07:50:53;;;;;;;2.47;1.80;;;;;;;13.63;60.25;95709.44;4950904;28;20765;-83
2022/09/23 07:53:19;;;;;;;2.07;1.90;;;;;;;13.64;60.17;95708.44;4954189;28;20212;-83
2022/09/23 07:55:51;;;;;;;4.43;1.97;;;;;;;13.85;58.16;95717.41;4964380;28;20288;-84
2022/09/23 07:58:16;;;;;;;4.00;1.97;;;;;;;13.90;58.35;95711.72;4968800;28;20188;-83
2022/09/23 08:00:42;;;;;;;2.67;1.97;;;;;;;13.82;59.15;95712.53;4982193;28;20193;-82
2022/09/23 08:03:08;;;;;;;1.90;1.70;;;;;;;13.95;59.35;95719.84;4940546;28;20177;-84
2022/09/23 08:05:33;;;;;;;3.13;2.33;;;;;;;13.95;60.15;95712.00;4957653;28;20227;-80
2022/09/23 08:07:58;;;;;;;3.17;2.20;;;;;;;13.96;60.79;95718.06;4972233;28;20200;-79
2022/09/23 08:10:24;;;;;;;3.57;2.17;;;;;;;14.07;58.47;95721.16;4969795;28;20211;-83
2022/09/23 08:12:49;;;;;;;2.57;2.37;;;;;;;14.20;58.15;95715.41;4941601;28;20234;-83
2022/09/23 08:15:15;;;;;;;2.60;2.20;;;;;;;14.27;58.41;95716.41;4947417;28;20192;-83
2022/09/23 08:17:41;;;;;;;2.40;2.20;;;;;;;14.01;58.13;95719.19;4975394;28;20172;-83
2022/09/23 08:20:07;;;;;;;5.03;2.47;;;;;;;13.74;60.06;95714.31;4974027;28;20204;-82
2022/09/23 08:22:32;;;;;;;5.93;2.27;;;;;;;13.96;59.58;95723.28;4955391;28;20192;-81
2022/09/23 08:24:57;;;;;;;5.30;2.67;;;;;;;13.86;60.22;95721.66;4983412;28;20690;-79
2022/09/23 08:27:22;;;;;;;5.43;2.63;;;;;;;14.01;59.99;95723.59;4953500;28;20327;-81
2022/09/23 08:29:48;;;;;;;2.50;2.30;;;;;;;14.18;59.29;95720.00;4968745;28;20333;-82
2022/09/23 08:32:13;;;;;;;3.17;2.40;;;;;;;14.10;60.01;95717.41;4940410;28;20189;-83
2022/09/23 08:34:38;;;;;;;2.30;2.10;;;;;;;13.92;61.39;95725.41;4940236;28;20601;-81
2022/09/23 08:37:09;;;;;;;3.33;2.70;;;;;;;14.03;61.44;95726.88;4950768;28;20362;-80
2022/09/23 08:39:34;;;;;;;5.27;2.60;;;;;;;13.99;61.38;95722.97;4937619;28;20200;-80
2022/09/23 08:42:06;;;;;;;2.80;2.60;;;;;;;13.86;60.90;95724.25;4971151;28;20567;-81
2022/09/23 08:44:46;;;;;;;2.10;2.00;;;;;;;13.84;61.33;95721.00;4968490;28;20212;-80
2022/09/23 08:47:22;;;;;;;3.57;2.43;;;;;;;13.74;61.30;95722.16;4970990;28;20215;-80
2022/09/23 08:49:54;;;;;;;2.57;2.13;;;;;;;13.95;60.79;95724.25;4955816;28;20528;-81
2022/09/23 08:52:27;;;;;;;3.23;2.63;;;;;;;13.99;60.60;95720.34;4955531;28;20200;-80
2022/09/23 08:54:52;;;;;;;4.57;2.77;;;;;;;13.86;60.20;95715.59;4954179;28;20573;-80
2022/09/23 08:57:30;;;;;;;3.10;2.43;;;;;;;13.62;62.47;95711.22;4951044;28;20205;-81
2022/09/23 08:59:55;;;;;;;3.77;2.70;;;;;;;13.81;61.67;95721.34;4965757;28;20562;-80
2022/09/23 09:02:21;;;;;;;3.17;2.23;;;;;;;14.01;61.52;95719.19;4967264;28;20186;-80
2022/09/23 09:04:53;;;;;;;4.43;2.77;;;;;;;13.98;60.98;95727.38;4957609;28;20224;-80
2022/09/23 09:07:28;;;;;;;3.03;2.47;;;;;;;13.95;60.50;95729.47;4956602;28;20694;-81
2022/09/23 09:09:59;;;;;;;2.40;2.20;;;;;;;14.06;59.35;95729.16;4950437;28;20196;-80
2022/09/23 09:12:40;;;;;;;4.60;2.40;;;;;;;13.99;58.34;95725.56;4950992;28;20192;-80
2022/09/23 09:15:12;;;;;;;4.57;2.63;;;;;;;14.16;58.00;95724.59;4976778;28;20268;-80
2022/09/23 09:17:52;;;;;;;5.43;2.47;;;;;;;14.21;56.73;95719.66;4939083;28;20205;-80
2022/09/23 09:20:22;;;;;;;2.50;2.30;;;;;;;14.26;55.15;95714.78;4973208;28;20184;-80
2022/09/23 09:22:56;;;;;;;4.20;2.10;;;;;;;14.25;55.67;95709.72;4957405;28;20191;-80
2022/09/23 09:26:03;;;;;;;4.40;2.57;;;;;;;14.24;56.55;95711.50;4965793;28;20216;-80
2022/09/23 09:28:43;;;;;;;4.00;2.40;;;;;;;14.25;57.78;95718.38;4943707;28;20236;-81
2022/09/23 09:31:37;;;;;;;2.97;2.20;;;;;;;14.41;55.38;95715.72;4955179;28;20200;-80
2022/09/23 09:34:05;;;;;;;6.60;2.50;;;;;;;14.32;56.97;95714.13;4972981;28;20626;-80
2022/09/23 09:36:52;;;;;;;2.63;2.43;;;;;;;14.56;56.44;95699.38;4969477;28;20303;-80
2022/09/23 09:39:18;;;;;;;4.00;2.05;;;;;;;14.50;56.73;95713.13;4972254;28;20184;-80
2022/09/23 09:41:48;;;;;;;3.03;2.00;;;;;;;14.63;55.48;95710.78;4966354;28;20641;-80
2022/09/23 09:44:52;;;;;;;6.90;2.23;;;;;;;14.83;56.44;95709.38;4954241;28;20192;-81
2022/09/23 09:47:31;;;;;;;3.50;2.30;;;;;;;14.72;56.03;95702.75;4937995;28;20694;-80
2022/09/23 09:50:08;;;;;;;3.28;2.30;;;;;;;14.64;57.27;95705.38;4954961;28;20239;-80
2022/09/23 09:52:34;;;;;;;2.30;2.10;;;;;;;14.68;57.37;95698.84;4952897;28;20685;-80
2022/09/23 09:55:11;;;;;;;4.72;2.33;;;;;;;14.60;57.29;95692.84;4966280;28;20189;-80
2022/09/23 09:57:41;;;;;;;6.47;2.30;;;;;;;14.58;58.03;95693.00;4969227;28;20207;-81
2022/09/23 10:00:41;;;;;;;3.40;2.60;;;;;;;14.55;57.15;95697.75;4953883;28;20346;-81
2022/09/23 10:03:13;;;;;;;4.38;2.53;;;;;;;14.72;58.20;95702.75;4950951;28;20575;-80
2022/09/23 10:05:44;;;;;;;4.13;2.40;;;;;;;14.87;57.38;95705.47;4969596;28;20270;-80
2022/09/23 10:08:34;;;;;;;3.17;2.43;;;;;;;14.98;57.01;95694.63;4967096;28;20197;-80
2022/09/23 10:11:10;;;;;;;2.92;2.40;;;;;;;14.99;56.74;95692.81;4935194;28;20200;-79
2022/09/23 10:13:36;;;;;;;2.72;2.35;;;;;;;15.00;55.98;95697.06;4967612;28;20251;-80
2022/09/23 10:16:02;;;;;;;6.68;2.67;;;;;;;15.08;57.07;95686.56;4966533;28;20205;-80
2022/09/23 10:18:31;;;;;;;3.22;2.92;;;;;;;15.08;55.79;95688.38;4943208;28;20608;-80
2022/09/23 10:21:16;;;;;;;4.87;2.80;;;;;;;15.26;55.52;95694.16;4983348;28;20564;-80
2022/09/23 10:23:49;;;;;;;3.78;2.55;;;;;;;15.01;55.69;95690.84;4932455;28;20562;-80
2022/09/23 10:26:17;;;;;;;4.25;2.65;;;;;;;15.03;55.24;95686.28;4946551;28;20220;-80
2022/09/23 10:28:50;;;;;;;4.20;2.33;;;;;;;15.11;55.61;95680.19;4966875;28;20223;-79
2022/09/23 10:31:23;;;;;;;4.28;2.65;;;;;;;14.94;55.63;95677.66;4948296;28;20618;-80
2022/09/23 10:33:51;;;;;;;6.05;2.70;;;;;;;15.15;55.28;95684.91;4956032;28;20220;-81
2022/09/23 10:36:17;;;;;;;6.55;3.03;;;;;;;15.28;54.44;95684.31;4953359;28;20200;-80
2022/09/23 10:38:43;;;;;;;6.35;2.80;;;;;;;15.24;54.89;95681.25;4968528;28;20199;-80
2022/09/23 10:47:30;;;;;;;4.93;3.00;;;;;;;15.58;54.81;95670.38;4968653;28;20215;-81
2022/09/23 10:50:14;;;;;;;5.28;2.85;;;;;;;15.34;53.99;95673.16;4970532;28;20231;-81
2022/09/23 10:53:01;;;;;;;3.63;3.00;;;;;;;15.40;54.32;95669.88;4956105;28;20196;-81
2022/09/23 10:56:05;;;;;;;4.28;2.78;;;;;;;15.68;54.11;95664.13;4964876;28;20189;-80
2022/09/23 10:58:46;;;;;;;6.85;3.67;;;;;;;15.30;54.22;95671.91;4932504;29;20586;-80
2022/09/23 11:01:36;;;;;;;5.07;3.25;;;;;;;15.23;54.79;95663.91;4939961;29;20225;-79
2022/09/23 11:04:19;;;;;;;7.95;4.07;;;;;;;15.55;54.64;95662.06;4933527;29;20192;-80
2022/09/23 11:06:52;;;;;;;5.68;3.40;;;;;;;15.82;53.27;95664.19;4930023;29;20223;-79
2022/09/23 11:09:39;;;;;;;5.68;3.45;;;;;;;15.78;53.48;95647.16;4942478;29;20202;-81
2022/09/23 11:12:38;;;;;;;4.57;2.75;;;;;;;15.83;53.50;95659.75;4920073;29;20193;-81
2022/09/23 11:15:22;;;;;;;4.53;2.72;;;;;;;16.05;54.48;95652.81;4930543;29;20240;-80
2022/09/23 11:18:05;;;;;;;5.85;3.45;;;;;;;16.05;53.32;95651.00;4938728;29;20643;-83
2022/09/23 11:21:01;;;;;;;4.15;3.13;;;;;;;15.91;54.09;95653.63;4929324;29;20189;-79
2022/09/23 11:23:44;;;;;;;5.10;3.38;;;;;;;15.95;54.45;95652.28;4930864;29;20189;-78
2022/09/23 11:26:22;;;;;;;5.65;3.08;;;;;;;16.07;53.92;95650.84;4931067;29;20217;-79
2022/09/23 11:28:55;;;;;;;3.97;3.13;;;;;;;16.35;53.28;95645.81;4917529;29;20216;-79
2022/09/23 11:31:34;;;;;;;3.88;3.40;;;;;;;16.41;52.53;95652.94;4943371;29;20193;-78
2022/09/23 11:34:33;;;;;;;4.43;3.03;;;;;;;16.50;52.29;95651.03;4932923;28;20192;-79
2022/09/23 11:37:03;;;;;;;3.53;3.05;;;;;;;16.42;52.96;95644.88;4952433;28;20251;-81
2022/09/23 11:39:35;;;;;;;5.82;2.95;;;;;;;16.45;54.24;95650.78;4969505;28;20181;-79
2022/09/23 11:42:00;;;;;;;4.10;3.25;;;;;;;16.38;52.15;95650.69;4971701;28;20199;-80
2022/09/23 11:44:36;;;;;;;3.47;3.17;;;;;;;16.29;53.08;95641.28;4942463;28;20188;-78
2022/09/23 11:47:06;;;;;;;5.22;3.50;;;;;;;16.18;52.00;95641.75;4957066;28;20208;-80
2022/09/23 11:49:39;;;;;;;6.30;3.20;;;;;;;16.57;53.61;95638.84;4958357;28;20180;-80
2022/09/23 11:52:18;;;;;;;4.47;3.47;;;;;;;16.65;53.06;95643.97;4952221;28;20228;-80
2022/09/23 11:55:06;;;;;;;4.03;3.28;;;;;;;16.70;51.00;95632.00;4969817;28;20180;-80
2022/09/23 11:57:49;;;;;;;5.07;3.30;;;;;;;16.73;51.11;95638.66;4969646;28;20204;-80
2022/09/23 12:00:20;;;;;;;5.72;3.08;;;;;;;16.70;51.38;95637.22;4971790;28;20195;-79
2022/09/23 12:03:02;;;;;;;3.97;2.80;;;;;;;16.87;51.13;95637.00;4956328;28;20255;-80
2022/09/23 12:05:38;;;;;;;4.40;3.60;;;;;;;16.78;50.86;95632.84;4954026;28;20235;-80